createdAt,value
2019-01-02T00:02:05.008Z,31.93
2019-01-02T00:07:10.001Z,35.23
2019-01-02T00:12:14.993Z,37.03
2019-01-02T00:17:20.036Z,92.97
2019-01-02T00:22:25.014Z,39.47
2019-01-02T00:27:30.493Z,64.20
2019-01-02T00:32:35.496Z,36.80
2019-01-02T00:37:40.496Z,33.87
2019-01-02T00:42:45.494Z,34.60
2019-01-02T00:47:50.495Z,36.87
2019-01-02T00:52:55.497Z,33.17
2019-01-02T00:58:00.513Z,33.73
2019-01-02T01:03:05.946Z,43.27
2019-01-02T01:08:11.539Z,33.53
2019-01-02T01:13:35.986Z,39.90
2019-01-02T01:18:41.750Z,47.70
2019-01-02T01:23:46.737Z,45.03
2019-01-02T01:28:51.761Z,49.90
2019-01-02T01:33:56.757Z,34.63
2019-01-02T01:39:02.151Z,51.70
2019-01-02T01:44:07.679Z,37.33
2019-01-02T01:49:12.694Z,44.47
2019-01-02T01:54:18.017Z,49.30
2019-01-02T01:59:23.032Z,44.47
2019-01-02T02:04:28.028Z,42.63
2019-01-02T02:09:33.439Z,38.43
2019-01-02T02:14:38.469Z,44.60
2019-01-02T02:19:43.509Z,30.83
2019-01-02T02:24:48.896Z,35.73
2019-01-02T02:29:54.306Z,33.80
2019-01-02T02:34:59.314Z,78.50
2019-01-02T02:40:04.986Z,40.30
2019-01-02T02:45:11.532Z,34.37
2019-01-02T02:50:17.665Z,46.80
2019-01-02T02:55:25.545Z,33.10
2019-01-02T03:00:30.520Z,38.23
2019-01-02T03:05:35.527Z,37.40
2019-01-02T03:10:40.602Z,42.13
2019-01-02T03:15:46.195Z,37.17
2019-01-02T03:20:51.578Z,31.47
2019-01-02T03:25:56.589Z,32.33
2019-01-02T03:31:01.994Z,49.50
2019-01-02T03:36:07.292Z,37.63
2019-01-02T03:41:12.275Z,35.27
2019-01-02T03:46:17.263Z,33.70
2019-01-02T03:51:22.243Z,25.53
2019-01-02T03:56:27.232Z,37.93
2019-01-02T04:01:32.212Z,32.10
2019-01-02T04:06:37.208Z,30.80
2019-01-02T04:11:42.239Z,27.73
2019-01-02T04:16:47.300Z,25.87
2019-01-02T04:21:52.332Z,28.57
2019-01-02T04:26:57.338Z,27.43
2019-01-02T04:32:02.324Z,28.90
2019-01-02T04:37:07.319Z,35.73
2019-01-02T04:42:12.305Z,25.03
2019-01-02T04:47:17.315Z,21.60
2019-01-02T04:52:22.385Z,23.00
2019-01-02T04:57:27.381Z,20.93
2019-01-02T05:02:32.383Z,19.70
2019-01-02T05:07:37.380Z,26.17
2019-01-02T05:12:42.403Z,18.33
2019-01-02T05:17:47.388Z,21.83
2019-01-02T05:22:52.379Z,24.13
2019-01-02T05:27:57.420Z,25.30
2019-01-02T05:33:02.416Z,26.87
2019-01-02T05:38:07.445Z,31.00
2019-01-02T05:43:12.424Z,30.40
2019-01-02T05:48:17.428Z,22.20
2019-01-02T05:53:22.424Z,30.37
2019-01-02T05:58:27.480Z,31.47
2019-01-02T06:03:32.481Z,30.93
2019-01-02T06:08:37.497Z,31.53
2019-01-02T06:13:42.541Z,25.40
2019-01-02T06:18:47.556Z,25.93
2019-01-02T06:23:52.544Z,27.47
2019-01-02T06:28:57.544Z,26.30
2019-01-02T06:34:02.526Z,18.70
2019-01-02T06:39:08.991Z,30.07
2019-01-02T06:44:13.976Z,20.80
2019-01-02T06:49:18.976Z,17.60
2019-01-02T06:54:24.008Z,22.67
2019-01-02T06:59:29.028Z,30.87
2019-01-02T07:04:34.019Z,22.80
2019-01-02T07:09:39.033Z,19.17
2019-01-02T07:14:44.019Z,25.00
2019-01-02T07:19:48.993Z,21.77
2019-01-02T07:24:53.983Z,26.67
2019-01-02T07:29:58.997Z,15.50
2019-01-02T07:35:50.172Z,19.00
2019-01-02T07:41:51.514Z,19.17
2019-01-02T07:47:42.446Z,15.97
2019-01-02T07:53:08.994Z,30.57
2019-01-02T07:58:55.500Z,20.17
2019-01-02T08:04:30.712Z,13.93
2019-01-02T08:10:12.684Z,19.17
2019-01-02T08:15:49.377Z,17.30
2019-01-02T08:21:51.208Z,15.93
2019-01-02T08:27:32.071Z,11.43
2019-01-02T08:33:27.012Z,19.07
2019-01-02T08:39:18.198Z,16.17
2019-01-02T08:44:52.956Z,20.00
2019-01-02T08:50:24.781Z,12.10
2019-01-02T08:55:43.931Z,11.37
2019-01-02T09:01:20.004Z,10.97
2019-01-02T09:06:52.080Z,12.83
2019-01-02T09:12:32.786Z,11.93
2019-01-02T09:18:14.844Z,30.83
2019-01-02T09:24:04.297Z,9.17
2019-01-02T09:29:46.420Z,12.80
2019-01-02T09:35:12.765Z,8.03
2019-01-02T09:40:58.357Z,10.47
2019-01-02T09:46:56.434Z,8.63
2019-01-02T09:52:54.265Z,8.77
2019-01-02T09:58:32.391Z,9.00
2019-01-02T10:04:14.618Z,5.97
2019-01-02T10:10:00.267Z,4.83
2019-01-02T10:15:31.701Z,6.80
2019-01-02T10:21:38.993Z,6.10
2019-01-02T10:27:09.359Z,7.30
2019-01-02T10:33:19.506Z,6.83
2019-01-02T10:39:09.693Z,2.90
2019-01-02T10:44:31.388Z,3.90
2019-01-02T10:50:22.951Z,4.17
2019-01-02T10:56:12.043Z,5.53
2019-01-02T11:01:39.297Z,6.33
2019-01-02T11:07:22.797Z,6.70
2019-01-02T11:13:17.701Z,9.20
2019-01-02T11:18:49.293Z,9.00
2019-01-02T11:24:25.128Z,10.33
2019-01-02T11:29:59.741Z,13.17
2019-01-02T11:35:50.915Z,10.93
2019-01-02T11:41:27.691Z,9.10
2019-01-02T11:46:32.709Z,10.20
2019-01-02T11:51:37.684Z,8.93
2019-01-02T11:56:42.671Z,10.63
2019-01-02T12:01:47.664Z,12.17
2019-01-02T12:06:52.649Z,10.10
2019-01-02T12:11:57.627Z,11.43
2019-01-02T12:17:02.625Z,10.43
2019-01-02T12:22:07.672Z,11.77
2019-01-02T12:27:12.742Z,11.20
2019-01-02T12:32:18.019Z,11.67
2019-01-02T12:37:23.000Z,11.20
2019-01-02T12:42:27.988Z,11.67
2019-01-02T12:47:32.984Z,11.47
2019-01-02T12:52:38.232Z,13.80
2019-01-02T12:57:43.204Z,11.07
2019-01-02T13:03:41.465Z,12.50
2019-01-02T13:09:29.559Z,12.07
2019-01-02T13:15:12.737Z,11.63
2019-01-02T13:20:48.172Z,11.60
2019-01-02T13:26:10.421Z,11.43
2019-01-02T13:32:01.394Z,10.30
2019-01-02T13:37:32.262Z,11.47
2019-01-02T13:43:06.048Z,11.47
2019-01-02T13:48:55.040Z,11.57
2019-01-02T13:54:00.030Z,10.97
2019-01-02T13:59:05.068Z,11.13
2019-01-02T14:04:10.836Z,10.80
2019-01-02T14:09:15.823Z,10.53
2019-01-02T14:14:20.804Z,7.80
2019-01-02T14:19:25.780Z,5.97
2019-01-02T14:24:30.755Z,3.70
2019-01-02T14:29:35.955Z,3.17
2019-01-02T14:34:40.936Z,3.43
2019-01-02T14:39:45.907Z,5.60
2019-01-02T14:44:50.937Z,6.27
2019-01-02T14:49:55.919Z,5.30
2019-01-02T14:55:01.162Z,6.00
2019-01-02T15:00:10.546Z,10.23
2019-01-02T15:05:15.527Z,6.60
2019-01-02T15:10:20.855Z,6.60
2019-01-02T15:15:25.865Z,7.40
2019-01-02T15:20:30.902Z,6.53
2019-01-02T15:25:37.752Z,6.00
2019-01-02T15:30:42.712Z,6.40
2019-01-02T15:35:49.063Z,6.27
2019-01-02T15:40:54.207Z,6.80
2019-01-02T15:45:59.225Z,7.03
2019-01-02T15:51:04.241Z,5.77
2019-01-02T15:56:09.232Z,6.57
2019-01-02T16:01:14.272Z,6.07
2019-01-02T16:06:19.252Z,7.53
2019-01-02T16:11:24.259Z,8.00
2019-01-02T16:16:29.383Z,8.43
2019-01-02T16:21:34.417Z,6.00
2019-01-02T16:26:39.559Z,6.27
2019-01-02T16:31:44.606Z,4.00
2019-01-02T16:36:49.594Z,6.20
2019-01-02T16:41:54.587Z,12.20
2019-01-02T16:46:59.598Z,4.30
2019-01-02T16:52:04.600Z,10.30
2019-01-02T16:57:09.602Z,5.50
2019-01-02T17:02:14.632Z,8.97
2019-01-02T17:07:19.663Z,3.67
2019-01-02T17:12:24.691Z,11.03
2019-01-02T17:17:29.723Z,7.17
2019-01-02T17:22:34.792Z,7.27
2019-01-02T17:27:41.059Z,5.00
2019-01-02T17:32:46.065Z,6.67
2019-01-02T17:37:51.224Z,8.43
2019-01-02T17:42:56.233Z,9.90
2019-01-02T17:48:01.292Z,15.07
2019-01-02T17:53:06.483Z,12.63
2019-01-02T17:58:11.490Z,6.07
2019-01-02T18:03:16.551Z,11.53
2019-01-02T18:08:21.566Z,9.73
2019-01-02T18:13:26.559Z,5.13
2019-01-02T18:18:31.615Z,5.93
2019-01-02T18:23:36.606Z,9.60
2019-01-02T18:28:41.875Z,12.90
2019-01-02T18:33:46.947Z,14.57
2019-01-02T18:38:52.610Z,16.93
2019-01-02T18:43:57.965Z,17.77
2019-01-02T18:49:03.171Z,17.07
2019-01-02T18:54:09.755Z,19.43
2019-01-02T18:59:14.758Z,13.07
2019-01-02T19:04:19.884Z,13.57
2019-01-02T19:09:24.899Z,23.03
2019-01-02T19:14:29.905Z,18.70
2019-01-02T19:19:34.927Z,11.70
2019-01-02T19:24:39.967Z,19.07
2019-01-02T19:29:44.967Z,22.73
2019-01-02T19:34:49.978Z,19.07
2019-01-02T19:39:54.984Z,20.67
2019-01-02T19:45:00.033Z,10.87
2019-01-02T19:50:05.411Z,16.73
2019-01-02T19:55:10.417Z,10.60
2019-01-02T20:00:15.416Z,9.30
2019-01-02T20:05:20.411Z,9.63
2019-01-02T20:10:25.566Z,14.07
2019-01-02T20:15:30.583Z,16.33
2019-01-02T20:20:35.607Z,10.73
2019-01-02T20:25:40.727Z,12.90
2019-01-02T20:30:45.725Z,13.63
2019-01-02T20:35:50.735Z,16.90
2019-01-02T20:40:55.773Z,11.00
2019-01-02T20:46:00.748Z,12.93
2019-01-02T20:51:05.769Z,9.03
2019-01-02T20:56:10.815Z,12.33
2019-01-02T21:01:15.819Z,11.83
2019-01-02T21:06:20.805Z,13.93
2019-01-02T21:11:25.806Z,17.30
2019-01-02T21:16:30.809Z,14.10
2019-01-02T21:21:35.852Z,8.90
2019-01-02T21:26:40.864Z,10.23
2019-01-02T21:31:45.883Z,6.37
2019-01-02T21:36:50.907Z,6.10
2019-01-02T21:41:55.887Z,9.23
2019-01-02T21:47:00.924Z,7.80
2019-01-02T21:52:05.924Z,8.60
2019-01-02T21:57:11.017Z,4.53
2019-01-02T22:02:15.998Z,8.80
2019-01-02T22:07:21.052Z,6.70
2019-01-02T22:12:26.052Z,6.60
2019-01-02T22:17:31.075Z,5.23
2019-01-02T22:22:36.139Z,7.50
2019-01-02T22:27:41.475Z,10.40
2019-01-02T22:32:46.495Z,3.77
2019-01-02T22:37:51.613Z,5.17
2019-01-02T22:42:56.636Z,6.03
2019-01-02T22:48:01.635Z,8.73
2019-01-02T22:53:06.816Z,3.67
2019-01-02T22:58:11.850Z,6.20
2019-01-02T23:03:38.834Z,6.87
2019-01-02T23:09:14.741Z,6.60
2019-01-02T23:14:37.323Z,5.53
2019-01-02T23:20:01.258Z,10.67
2019-01-02T23:25:31.284Z,7.17
2019-01-02T23:30:55.759Z,9.83
2019-01-02T23:36:37.828Z,8.43
2019-01-02T23:42:08.420Z,10.10
2019-01-02T23:47:44.978Z,11.00
2019-01-02T23:53:09.042Z,6.40
2019-01-02T23:58:35.773Z,6.67
